Impacts METAR Board
IDs:

KSFO - San Francisco Intl, CA, US

Updated at: 2000 UTC 24 Apr 2018
Potential Impact None Slight Moderate High
Time 24/08Z 24/09Z 24/10Z 24/11Z 24/12Z 24/13Z 24/14Z 24/15Z 24/16Z 24/17Z 24/18Z 24/19Z 24/20Z
Temp54 54 53 54 54 54 55 55 56 57 60 60 63
Dewpt47 48 48 48 47 48 48 48 48 48 49 48 49
Altim30.02 30.01 29.99 29.99 29.99 29.99 30.00 30.01 30.02 30.03 30.03 30.03 30.02
VIS10 10 10 10 10 10 10 9 9 9 9 10 10
CIG-- 200 200 11 11 11 11 11 11 15 -- -- --
CoverSCTBKNBKNBKNOVCOVCOVCOVCOVCBKNFEWFEWFEW
FltCatVFRVFRVFRMVFRMVFRMVFRMVFRMVFRMVFRMVFRVFRVFRVFR
WX--------------------------
WDir300310290280170220280290270330320330310
WSpd4 4 5 5 3 5 5 6 6 8 8 10 12
WGst-- -- -- -- -- -- -- -- -- -- -- -- --
Raw hourly METARs
KSFO 240756Z 30004KT 10SM FEW008 SCT200 12/08 A3002 RMK AO2 SLP164 T01220083 402330111
KSFO 240856Z 31004KT 10SM FEW008 BKN200 12/09 A3001 RMK AO2 SLP162 T01220089 58003
KSFO 240956Z 29005KT 10SM FEW008 FEW013 BKN200 12/09 A2999 RMK AO2 SLP156 T01170089
KSFO 241056Z 28005KT 10SM FEW008 BKN011 BKN200 12/09 A2999 RMK AO2 SLP156 T01220089
KSFO 241156Z 17003KT 10SM FEW008 OVC011 12/08 A2999 RMK AO2 SLP154 T01220083 10128 20117 56007
KSFO 241256Z 22005KT 10SM FEW008 OVC011 12/09 A2999 RMK AO2 SLP154 T01220089
KSFO 241356Z 28005KT 10SM FEW007 OVC011 13/09 A3000 RMK AO2 SLP157 T01280089
KSFO 241456Z 29006KT 9SM FEW007 OVC011 13/09 A3001 RMK AO2 SLP162 T01280089 53007
KSFO 241556Z 27006KT 9SM FEW007 OVC011 13/09 A3002 RMK AO2 SLP165 T01330089
KSFO 241656Z 33008KT 9SM BKN015 14/09 A3003 RMK AO2 SLP168 T01390089
KSFO 241756Z COR 32008KT 9SM FEW014 16/09 A3003 RMK AO2 SLP170 T01560094 10156 20122 51008
KSFO 241856Z 33010KT 10SM FEW014 16/09 A3003 RMK AO2 SLP169 T01560089
KSFO 241956Z 31012KT 10SM FEW180 17/09 A3002 RMK AO2 SLP165 T01720094



Page loaded:  20:42 UTC  |   01:42 PM Pacific  |   02:42 PM Mountain  |   03:42 PM Central  |   04:42 PM Eastern

 

ADVISORIES

FORECASTS

FORECASTS

OBSERVATIONS

USER TOOLS

ABOUT US